createdAt,value
2022-09-05T00:01:44.136Z,100197.69
2022-09-05T00:04:25.461Z,100197.38
2022-09-05T00:07:05.633Z,100192.00
2022-09-05T00:09:57.432Z,100187.25
2022-09-05T00:12:28.967Z,100191.97
2022-09-05T00:15:19.272Z,100190.03
2022-09-05T00:21:08.196Z,100187.81
2022-09-05T00:24:32.277Z,100205.09
2022-09-05T00:24:37.273Z,100198.13
2022-09-05T00:27:12.098Z,100204.03
2022-09-05T00:31:07.125Z,100211.16
2022-09-05T00:33:19.432Z,100205.09
2022-09-05T00:36:06.441Z,100202.06
2022-09-05T00:38:40.152Z,100204.13
2022-09-05T00:41:13.875Z,100201.22
2022-09-05T00:43:46.127Z,100212.25
2022-09-05T00:46:19.181Z,100198.88
2022-09-05T00:48:54.412Z,100212.84
2022-09-05T00:51:34.939Z,100215.59
2022-09-05T00:54:26.324Z,100212.72
2022-09-05T00:57:33.253Z,100209.22
2022-09-05T01:00:17.276Z,100189.06
2022-09-05T01:03:18.949Z,100213.63
2022-09-05T01:06:17.427Z,100207.22
2022-09-05T01:09:08.535Z,100203.34
2022-09-05T01:11:49.384Z,100198.31
2022-09-05T01:14:38.396Z,100195.22
2022-09-05T01:17:29.052Z,100202.31
2022-09-05T01:20:25.797Z,100192.69
2022-09-05T01:23:19.719Z,100197.06
2022-09-05T01:25:59.274Z,100185.31
2022-09-05T01:29:16.478Z,100185.78
2022-09-05T01:31:33.627Z,100180.56
2022-09-05T01:34:11.023Z,100175.50
2022-09-05T01:36:53.947Z,100177.13
2022-09-05T01:40:10.696Z,100179.38
2022-09-05T01:42:37.007Z,100171.97
2022-09-05T01:45:17.364Z,100181.94
2022-09-05T01:47:53.267Z,100171.78
2022-09-05T01:50:40.680Z,100174.53
2022-09-05T01:53:25.820Z,100181.88
2022-09-05T01:56:31.452Z,100177.78
2022-09-05T01:59:23.811Z,100178.06
2022-09-05T02:02:20.113Z,100183.66
2022-09-05T02:05:12.811Z,100189.94
2022-09-05T02:08:00.724Z,100188.09
2022-09-05T02:10:54.893Z,100191.28
2022-09-05T02:13:30.279Z,100184.38
2022-09-05T02:16:06.066Z,100201.16
2022-09-05T02:18:52.470Z,100194.41
2022-09-05T02:21:31.632Z,100200.00
2022-09-05T02:24:10.456Z,100208.44
2022-09-05T02:26:49.083Z,100208.81
2022-09-05T02:29:30.045Z,100204.47
2022-09-05T02:32:12.917Z,100201.22
2022-09-05T02:34:53.560Z,100203.94
2022-09-05T02:39:02.515Z,100202.72
2022-09-05T02:45:01.323Z,100199.56
2022-09-05T02:45:19.648Z,100198.41
2022-09-05T02:46:28.481Z,100195.50
2022-09-05T02:49:07.739Z,100207.19
2022-09-05T02:57:27.665Z,100210.72
2022-09-05T02:57:42.314Z,100212.75
2022-09-05T02:58:07.658Z,100218.31
2022-09-05T03:00:43.510Z,100213.28
2022-09-05T03:03:24.626Z,100210.06
2022-09-05T03:06:01.730Z,100220.56
2022-09-05T03:09:16.563Z,100196.41
2022-09-05T03:12:29.395Z,100205.16
2022-09-05T03:15:46.907Z,100215.16
2022-09-05T03:18:48.731Z,100220.44
2022-09-05T03:22:09.387Z,100215.69
2022-09-05T03:25:21.495Z,100218.56
2022-09-05T03:28:32.620Z,100222.81
2022-09-05T03:31:44.166Z,100225.81
2022-09-05T03:34:41.516Z,100228.19
2022-09-05T03:37:42.544Z,100218.38
2022-09-05T03:40:36.677Z,100223.47
2022-09-05T03:43:38.988Z,100223.44
2022-09-05T03:46:29.250Z,100223.97
2022-09-05T03:50:18.725Z,100224.13
2022-09-05T03:57:11.772Z,100228.38
2022-09-05T03:57:24.170Z,100234.28
2022-09-05T03:58:57.660Z,100233.94
2022-09-05T04:02:59.987Z,100231.56
2022-09-05T04:08:14.026Z,100237.63
2022-09-05T04:08:19.557Z,100238.66
2022-09-05T04:10:33.827Z,100246.44
2022-09-05T04:13:09.768Z,100246.44
2022-09-05T04:15:44.757Z,100244.41
2022-09-05T04:18:33.247Z,100245.41
2022-09-05T04:21:09.759Z,100246.75
2022-09-05T04:23:48.739Z,100251.31
2022-09-05T04:26:36.474Z,100255.91
2022-09-05T04:29:18.385Z,100261.09
2022-09-05T04:32:06.535Z,100259.59
2022-09-05T04:35:04.048Z,100271.75
2022-09-05T04:37:48.711Z,100276.13
2022-09-05T04:40:48.009Z,100293.19
2022-09-05T04:43:29.987Z,100290.66
2022-09-05T04:46:10.537Z,100292.50
2022-09-05T04:48:46.889Z,100290.94
2022-09-05T04:52:00.380Z,100298.75
2022-09-05T04:54:36.433Z,100303.50
2022-09-05T04:57:26.171Z,100292.00
2022-09-05T05:05:58.697Z,100303.84
2022-09-05T05:06:17.548Z,100301.16
2022-09-05T05:06:31.699Z,100294.72
2022-09-05T05:08:56.910Z,100300.13
2022-09-05T05:16:29.910Z,100308.22
2022-09-05T05:18:12.504Z,100300.81
2022-09-05T05:18:14.521Z,100304.53
2022-09-05T05:20:39.854Z,100310.59
2022-09-05T05:23:14.629Z,100305.88
2022-09-05T05:25:50.674Z,100311.25
2022-09-05T05:28:29.150Z,100313.78
2022-09-05T05:31:11.901Z,100302.06
2022-09-05T05:33:48.485Z,100305.94
2022-09-05T05:36:23.955Z,100305.81
2022-09-05T05:39:00.837Z,100310.84
2022-09-05T05:41:38.484Z,100308.28
2022-09-05T05:44:20.363Z,100301.34
2022-09-05T05:47:00.375Z,100309.06
2022-09-05T05:49:46.446Z,100315.47
2022-09-05T05:52:58.679Z,100316.75
2022-09-05T05:55:52.929Z,100322.16
2022-09-05T05:58:59.959Z,100316.47
2022-09-05T06:02:05.924Z,100326.88
2022-09-05T06:05:09.821Z,100332.66
2022-09-05T06:10:44.378Z,100331.63
2022-09-05T06:14:50.394Z,100337.72
2022-09-05T06:15:01.463Z,100331.56
2022-09-05T06:17:47.817Z,100323.59
2022-09-05T06:22:08.301Z,100322.69
2022-09-05T06:24:27.500Z,100334.63
2022-09-05T06:27:27.819Z,100335.78
2022-09-05T06:30:03.210Z,100329.22
2022-09-05T06:32:56.919Z,100338.00
2022-09-05T06:35:46.545Z,100323.78
2022-09-05T06:38:44.622Z,100338.16
2022-09-05T06:41:31.679Z,100336.19
2022-09-05T06:44:35.123Z,100332.94
2022-09-05T06:47:23.881Z,100340.53
2022-09-05T06:50:23.708Z,100334.88
2022-09-05T06:53:36.752Z,100338.84
2022-09-05T06:56:28.029Z,100336.50
2022-09-05T06:59:39.968Z,100346.09
2022-09-05T07:02:33.040Z,100340.16
2022-09-05T07:05:39.818Z,100349.44
2022-09-05T07:08:36.310Z,100343.00
2022-09-05T07:11:16.241Z,100356.97
2022-09-05T07:13:57.850Z,100356.31
2022-09-05T07:16:41.945Z,100352.56
2022-09-05T07:19:27.176Z,100355.94
2022-09-05T07:22:46.290Z,100358.22
2022-09-05T07:25:21.034Z,100352.16
2022-09-05T07:28:26.903Z,100349.13
2022-09-05T07:30:50.589Z,100350.72
2022-09-05T07:33:25.497Z,100313.03
2022-09-05T07:35:58.602Z,100353.31
2022-09-05T07:38:38.226Z,100354.03
2022-09-05T07:41:24.440Z,100342.38
2022-09-05T07:43:56.243Z,100347.88
2022-09-05T07:46:30.107Z,100347.50
2022-09-05T07:49:06.207Z,100351.25
2022-09-05T07:56:55.698Z,100344.47
2022-09-05T07:57:08.252Z,100344.06
2022-09-05T07:57:31.305Z,100345.81
2022-09-05T08:00:26.585Z,100348.94
2022-09-05T08:03:02.109Z,100337.78
2022-09-05T08:05:42.374Z,100345.56
2022-09-05T08:08:15.752Z,100340.63
2022-09-05T08:11:22.691Z,100345.16
2022-09-05T08:14:25.452Z,100339.59
2022-09-05T08:16:49.704Z,100333.63
2022-09-05T08:19:47.058Z,100332.59
2022-09-05T08:22:23.210Z,100331.69
2022-09-05T08:25:01.132Z,100341.56
2022-09-05T08:27:38.880Z,100332.81
2022-09-05T08:30:26.501Z,100327.84
2022-09-05T08:33:11.041Z,100337.34
2022-09-05T08:35:46.541Z,100334.19
2022-09-05T08:38:18.821Z,100338.03
2022-09-05T08:40:56.257Z,100327.91
2022-09-05T08:46:39.657Z,100322.91
2022-09-05T08:46:45.760Z,100318.31
2022-09-05T08:49:46.857Z,100319.09
2022-09-05T08:52:29.815Z,100322.91
2022-09-05T08:55:13.783Z,100315.41
2022-09-05T08:58:04.084Z,100323.28
2022-09-05T09:00:43.135Z,100317.94
2022-09-05T09:03:29.543Z,100312.34
2022-09-05T09:06:26.905Z,100312.16
2022-09-05T09:09:11.213Z,100311.28
2022-09-05T09:11:53.506Z,100311.13
2022-09-05T09:14:36.940Z,100291.50
2022-09-05T09:17:26.929Z,100298.31
2022-09-05T09:20:14.436Z,100291.25
2022-09-05T09:22:56.719Z,100290.44
2022-09-05T09:25:33.984Z,100296.47
2022-09-05T09:28:47.932Z,100296.63
2022-09-05T09:31:33.228Z,100295.34
2022-09-05T09:34:32.918Z,100301.94
2022-09-05T09:37:54.401Z,100294.53
2022-09-05T09:41:02.219Z,100284.94
2022-09-05T09:43:55.268Z,100284.22
2022-09-05T09:46:39.114Z,100273.78
2022-09-05T09:49:27.700Z,100279.38
2022-09-05T09:52:36.468Z,100279.69
2022-09-05T09:55:52.191Z,100281.00
2022-09-05T09:58:59.747Z,100277.47
2022-09-05T10:01:40.209Z,100259.63
2022-09-05T10:10:36.517Z,100265.66
2022-09-05T10:10:52.198Z,100273.91
2022-09-05T10:11:51.967Z,100266.34
2022-09-05T10:14:36.751Z,100270.88
2022-09-05T10:17:32.256Z,100271.28
2022-09-05T10:20:18.147Z,100237.69
2022-09-05T10:23:04.226Z,100273.47
2022-09-05T10:26:08.291Z,100260.91
2022-09-05T10:28:42.900Z,100252.53
2022-09-05T10:32:58.085Z,100260.53
2022-09-05T10:35:07.573Z,100254.44
2022-09-05T10:37:13.512Z,100264.72
2022-09-05T10:39:48.003Z,100260.13
2022-09-05T10:42:25.366Z,100249.63
2022-09-05T10:44:57.161Z,100247.31
2022-09-05T10:47:38.229Z,100252.13
2022-09-05T10:50:27.338Z,100249.84
2022-09-05T10:53:25.584Z,100240.81
2022-09-05T10:56:07.852Z,100236.81
2022-09-05T10:59:33.160Z,100221.50
2022-09-05T11:02:29.474Z,100239.16
2022-09-05T11:04:50.540Z,100224.66
2022-09-05T11:07:37.087Z,100240.81
2022-09-05T11:10:14.363Z,100232.66
2022-09-05T11:13:08.580Z,100232.66
2022-09-05T11:16:03.696Z,100224.25
2022-09-05T11:18:55.710Z,100229.88
2022-09-05T11:21:33.321Z,100221.31
2022-09-05T11:24:12.859Z,100221.47
2022-09-05T11:26:51.425Z,100232.19
2022-09-05T11:29:42.816Z,100228.84
2022-09-05T11:35:45.349Z,100212.22
2022-09-05T11:39:58.552Z,100218.75
2022-09-05T11:39:59.729Z,100217.47
2022-09-05T11:42:09.354Z,100204.63
2022-09-05T11:45:08.780Z,100201.69
2022-09-05T11:48:23.726Z,100183.59
2022-09-05T11:51:41.467Z,100193.94
2022-09-05T11:54:50.346Z,100183.66
2022-09-05T11:57:46.840Z,100178.63
2022-09-05T12:00:33.868Z,100171.28
2022-09-05T12:03:59.535Z,100171.91
2022-09-05T12:07:27.095Z,100168.47
2022-09-05T12:10:06.015Z,100162.34
2022-09-05T12:12:43.385Z,100139.75
2022-09-05T12:15:34.397Z,100156.94
2022-09-05T12:18:19.478Z,100167.06
2022-09-05T12:21:03.516Z,100155.91
2022-09-05T12:24:28.509Z,100154.59
2022-09-05T12:27:41.541Z,100157.78
2022-09-05T12:29:48.761Z,100144.13
2022-09-05T12:34:25.520Z,100159.47
2022-09-05T12:36:12.660Z,100147.34
2022-09-05T12:40:57.439Z,100141.41
2022-09-05T12:41:42.814Z,100137.13
2022-09-05T12:44:44.292Z,100139.78
2022-09-05T12:47:21.277Z,100149.06
2022-09-05T12:50:14.566Z,100136.28
2022-09-05T12:52:47.416Z,100143.25
2022-09-05T12:55:26.424Z,100136.94
2022-09-05T13:02:57.756Z,100129.94
2022-09-05T13:03:12.853Z,100124.09
2022-09-05T13:04:15.904Z,100116.75
2022-09-05T13:06:43.623Z,100122.19
2022-09-05T13:09:22.385Z,100119.69
2022-09-05T13:14:50.447Z,100113.34
2022-09-05T13:15:11.479Z,100112.28
2022-09-05T13:17:54.016Z,100117.31
2022-09-05T13:20:34.931Z,100115.84
2022-09-05T13:23:18.288Z,100120.16
2022-09-05T13:25:58.039Z,100112.06
2022-09-05T13:28:38.493Z,100108.56
2022-09-05T13:37:59.656Z,100115.69
2022-09-05T13:38:00.575Z,100121.28
2022-09-05T13:38:04.721Z,100121.41
2022-09-05T13:40:05.386Z,100104.34
2022-09-05T13:42:40.787Z,100125.59
2022-09-05T13:45:18.565Z,100113.47
2022-09-05T13:48:02.995Z,100128.97
2022-09-05T13:50:38.378Z,100116.44
2022-09-05T13:53:16.880Z,100120.38
2022-09-05T13:55:57.533Z,100131.88
2022-09-05T13:58:39.917Z,100128.94
2022-09-05T14:01:30.138Z,100138.63
2022-09-05T14:08:17.906Z,100139.91
2022-09-05T14:11:12.242Z,100149.34
2022-09-05T14:14:04.826Z,100140.34
2022-09-05T14:16:53.585Z,100148.59
2022-09-05T14:19:43.351Z,100147.16
2022-09-05T14:22:36.108Z,100144.03
2022-09-05T14:25:12.016Z,100151.38
2022-09-05T14:27:46.115Z,100139.19
2022-09-05T14:36:08.049Z,100145.72
2022-09-05T14:37:42.860Z,100144.84
2022-09-05T14:37:52.441Z,100147.56
2022-09-05T14:40:19.187Z,100132.38
2022-09-05T14:43:26.770Z,100132.16
2022-09-05T14:46:22.393Z,100126.50
2022-09-05T14:49:12.452Z,100134.50
2022-09-05T14:51:46.849Z,100131.13
2022-09-05T15:00:27.665Z,100132.22
2022-09-05T15:02:42.336Z,100133.28
2022-09-05T15:03:06.352Z,100135.41
2022-09-05T15:05:41.839Z,100136.88
2022-09-05T15:11:24.520Z,100131.66
2022-09-05T15:12:20.002Z,100137.16
2022-09-05T15:14:08.609Z,100121.19
2022-09-05T15:16:45.772Z,100135.88
2022-09-05T15:20:05.228Z,100144.69
2022-09-05T15:22:39.700Z,100145.13
2022-09-05T15:25:18.124Z,100146.38
2022-09-05T15:27:49.548Z,100146.81
2022-09-05T15:30:27.535Z,100154.78
2022-09-05T15:33:15.253Z,100159.63
2022-09-05T15:35:46.512Z,100161.94
2022-09-05T15:38:29.282Z,100155.00
2022-09-05T15:41:20.656Z,100131.56
2022-09-05T15:43:58.403Z,100157.34
2022-09-05T15:46:51.416Z,100155.88
2022-09-05T15:49:42.965Z,100154.59
2022-09-05T15:52:35.275Z,100160.88
2022-09-05T15:55:13.854Z,100163.00
2022-09-05T15:57:49.473Z,100161.72
2022-09-05T16:00:42.252Z,100164.88
2022-09-05T16:06:10.725Z,100166.13
2022-09-05T16:10:50.406Z,100164.25
2022-09-05T16:10:59.282Z,100165.28
2022-09-05T16:12:19.316Z,100140.94
2022-09-05T16:15:14.793Z,100164.03
2022-09-05T16:23:15.605Z,100161.94
2022-09-05T16:23:26.206Z,100155.81
2022-09-05T16:23:40.679Z,100153.94
2022-09-05T16:26:25.003Z,100149.50
2022-09-05T16:29:01.151Z,100150.97
2022-09-05T16:31:41.014Z,100164.38
2022-09-05T16:34:20.791Z,100164.81
2022-09-05T16:37:07.814Z,100165.44
2022-09-05T16:39:50.960Z,100166.03
2022-09-05T16:42:45.983Z,100166.44
2022-09-05T16:45:28.355Z,100178.78
2022-09-05T16:48:07.669Z,100185.28
2022-09-05T16:50:50.086Z,100191.34
2022-09-05T16:53:30.989Z,100186.69
2022-09-05T16:56:08.851Z,100191.72
2022-09-05T16:58:41.954Z,100160.59
2022-09-05T17:01:36.036Z,100193.94
2022-09-05T17:04:15.849Z,100200.38
2022-09-05T17:06:55.353Z,100204.75
2022-09-05T17:09:27.514Z,100206.81
2022-09-05T17:12:02.298Z,100205.78
2022-09-05T17:14:41.810Z,100215.19
2022-09-05T17:17:54.600Z,100212.19
2022-09-05T17:20:14.611Z,100224.09
2022-09-05T17:26:46.912Z,100229.72
2022-09-05T17:29:25.035Z,100246.78
2022-09-05T17:29:50.490Z,100229.66
2022-09-05T17:31:57.756Z,100246.69
2022-09-05T17:34:58.699Z,100253.75
2022-09-05T17:38:17.449Z,100240.03
2022-09-05T17:41:43.902Z,100258.72
2022-09-05T17:44:25.987Z,100267.41
2022-09-05T17:47:15.256Z,100269.44
2022-09-05T17:49:47.016Z,100278.19
2022-09-05T17:52:24.227Z,100277.75
2022-09-05T17:54:57.507Z,100275.16
2022-09-05T17:57:39.374Z,100275.59
2022-09-05T18:00:43.156Z,100280.63
2022-09-05T18:04:16.588Z,100287.25
2022-09-05T18:06:58.973Z,100292.94
2022-09-05T18:13:13.054Z,100289.16
2022-09-05T18:16:12.510Z,100300.63
2022-09-05T18:19:32.621Z,100301.09
2022-09-05T18:21:54.110Z,100301.09
2022-09-05T18:24:35.067Z,100298.66
2022-09-05T18:27:39.376Z,100308.03
2022-09-05T18:30:13.267Z,100309.63
2022-09-05T18:32:48.034Z,100300.19
2022-09-05T18:35:36.271Z,100305.06
2022-09-05T18:38:50.524Z,100281.75
2022-09-05T18:41:20.211Z,100292.53
2022-09-05T18:44:13.579Z,100298.22
2022-09-05T18:46:51.267Z,100291.28
2022-09-05T18:50:25.752Z,100292.97
2022-09-05T18:52:23.327Z,100299.53
2022-09-05T18:56:09.988Z,100296.16
2022-09-05T18:58:07.383Z,100303.47
2022-09-05T19:00:44.661Z,100304.13
2022-09-05T19:03:25.052Z,100308.16
2022-09-05T19:06:04.266Z,100300.03
2022-09-05T19:08:54.452Z,100310.09
2022-09-05T19:11:30.897Z,100312.72
2022-09-05T19:14:25.789Z,100295.31
2022-09-05T19:17:07.554Z,100310.22
2022-09-05T19:20:32.246Z,100302.69
2022-09-05T19:23:11.179Z,100320.50
2022-09-05T19:25:46.275Z,100314.28
2022-09-05T19:36:51.434Z,100308.47
2022-09-05T19:36:58.388Z,100321.25
2022-09-05T19:37:13.760Z,100320.56
2022-09-05T19:37:30.541Z,100310.47
2022-09-05T19:44:15.833Z,100308.47
2022-09-05T19:47:39.123Z,100314.50
2022-09-05T19:47:40.838Z,100301.94
2022-09-05T19:48:34.466Z,100317.19
2022-09-05T19:51:17.073Z,100309.72
2022-09-05T19:54:03.742Z,100308.38
2022-09-05T19:56:39.133Z,100314.31
2022-09-05T19:59:23.154Z,100306.00
2022-09-05T20:01:53.458Z,100304.28
2022-09-05T20:04:26.573Z,100301.88
2022-09-05T20:06:56.767Z,100300.13
2022-09-05T20:09:28.773Z,100287.66
2022-09-05T20:12:00.138Z,100303.53
2022-09-05T20:14:35.732Z,100302.41
2022-09-05T20:17:21.159Z,100302.53
2022-09-05T20:20:06.919Z,100301.63
2022-09-05T20:22:49.468Z,100306.84
2022-09-05T20:25:35.214Z,100305.41
2022-09-05T20:28:10.337Z,100306.44
2022-09-05T20:30:44.782Z,100292.38
2022-09-05T20:33:20.577Z,100303.50
2022-09-05T20:41:32.181Z,100304.28
2022-09-05T20:43:20.810Z,100309.31
2022-09-05T20:43:31.716Z,100310.66
2022-09-05T20:44:41.268Z,100317.09
2022-09-05T20:54:04.319Z,100310.41
2022-09-05T20:54:16.977Z,100304.75
2022-09-05T20:54:28.652Z,100315.91
2022-09-05T20:56:03.627Z,100323.38
2022-09-05T20:58:35.034Z,100325.59
2022-09-05T21:01:21.120Z,100328.69
2022-09-05T21:03:59.009Z,100315.16
2022-09-05T21:06:33.711Z,100323.44
2022-09-05T21:09:16.010Z,100324.59
2022-09-05T21:11:56.385Z,100325.00
2022-09-05T21:14:29.428Z,100331.63
2022-09-05T21:17:15.738Z,100331.41
2022-09-05T21:19:55.382Z,100333.47
2022-09-05T21:22:33.322Z,100339.41
2022-09-05T21:25:25.139Z,100332.81
2022-09-05T21:28:08.804Z,100328.75
2022-09-05T21:30:41.435Z,100341.13
2022-09-05T21:33:18.979Z,100338.94
2022-09-05T21:35:53.324Z,100331.66
2022-09-05T21:38:32.527Z,100336.06
2022-09-05T21:41:03.689Z,100343.69
2022-09-05T21:47:39.157Z,100333.69
2022-09-05T21:47:42.995Z,100341.13
2022-09-05T21:49:21.218Z,100337.25
2022-09-05T21:51:53.311Z,100335.06
2022-09-05T21:59:21.408Z,100339.66
2022-09-05T21:59:27.857Z,100340.69
2022-09-05T22:00:11.543Z,100343.69
2022-09-05T22:02:41.762Z,100343.72
2022-09-05T22:05:13.471Z,100345.41
2022-09-05T22:07:44.801Z,100335.28
2022-09-05T22:10:15.490Z,100333.25
2022-09-05T22:12:45.962Z,100333.59
2022-09-05T22:15:27.471Z,100317.72
2022-09-05T22:18:16.537Z,100331.53
2022-09-05T22:20:58.585Z,100331.56
2022-09-05T22:23:45.429Z,100319.56
2022-09-05T22:26:18.357Z,100325.47
2022-09-05T22:28:49.829Z,100335.09
2022-09-05T22:31:21.789Z,100329.50
2022-09-05T22:33:52.023Z,100332.38
2022-09-05T22:36:23.103Z,100332.91
2022-09-05T22:38:54.999Z,100334.25
2022-09-05T22:41:30.185Z,100338.28
2022-09-05T22:44:01.003Z,100328.66
2022-09-05T22:46:31.969Z,100330.50
2022-09-05T22:49:01.856Z,100340.28
2022-09-05T22:51:31.829Z,100324.06
2022-09-05T22:54:03.060Z,100333.38
2022-09-05T22:56:35.421Z,100335.00
2022-09-05T22:59:05.978Z,100329.38
2022-09-05T23:01:35.899Z,100325.84
2022-09-05T23:04:05.948Z,100328.34
2022-09-05T23:06:37.041Z,100328.34
2022-09-05T23:09:09.703Z,100327.63
2022-09-05T23:11:40.657Z,100311.06
2022-09-05T23:14:11.051Z,100328.44
2022-09-05T23:16:41.088Z,100323.16
2022-09-05T23:19:10.903Z,100324.91
2022-09-05T23:21:41.027Z,100320.72
2022-09-05T23:24:12.384Z,100323.63
2022-09-05T23:26:42.601Z,100330.78
2022-09-05T23:29:12.565Z,100328.13
2022-09-05T23:31:42.439Z,100325.91
2022-09-05T23:34:12.303Z,100317.97
2022-09-05T23:36:42.420Z,100314.78
2022-09-05T23:39:13.799Z,100316.19
2022-09-05T23:41:43.850Z,100318.53
2022-09-05T23:44:13.734Z,100322.00
2022-09-05T23:46:43.824Z,100323.47
2022-09-05T23:49:13.775Z,100318.69
2022-09-05T23:51:45.886Z,100321.06
2022-09-05T23:54:17.116Z,100325.25
2022-09-05T23:56:47.139Z,100324.69
2022-09-05T23:59:17.180Z,100324.22
